sensor_id;sensor_type;location;lat;lon;timestamp;P1;durP1;ratioP1;P2;durP2;ratioP2
48481;SDS011;34284;48.278;16.378;2022-07-29T00:00:43;365.85;;;256.40;;
48481;SDS011;34284;48.278;16.378;2022-07-29T00:03:10;370.63;;;257.77;;
48481;SDS011;34284;48.278;16.378;2022-07-29T00:05:36;374.30;;;256.73;;
48481;SDS011;34284;48.278;16.378;2022-07-29T00:08:03;372.52;;;270.17;;
48481;SDS011;34284;48.278;16.378;2022-07-29T00:10:29;366.15;;;260.98;;
48481;SDS011;34284;48.278;16.378;2022-07-29T00:12:55;370.58;;;258.98;;
48481;SDS011;34284;48.278;16.378;2022-07-29T00:15:21;374.23;;;260.10;;
48481;SDS011;34284;48.278;16.378;2022-07-29T00:17:47;370.38;;;257.77;;
48481;SDS011;34284;48.278;16.378;2022-07-29T00:20:13;369.05;;;262.10;;
48481;SDS011;34284;48.278;16.378;2022-07-29T00:22:39;378.25;;;253.10;;
48481;SDS011;34284;48.278;16.378;2022-07-29T00:25:06;369.88;;;253.18;;
48481;SDS011;34284;48.278;16.378;2022-07-29T00:27:32;367.38;;;251.40;;
48481;SDS011;34284;48.278;16.378;2022-07-29T00:29:58;369.75;;;248.73;;
48481;SDS011;34284;48.278;16.378;2022-07-29T00:32:24;374.45;;;253.60;;
48481;SDS011;34284;48.278;16.378;2022-07-29T00:34:50;378.25;;;254.48;;
48481;SDS011;34284;48.278;16.378;2022-07-29T00:37:35;366.05;;;253.70;;
48481;SDS011;34284;48.278;16.378;2022-07-29T00:40:01;374.00;;;251.27;;
48481;SDS011;34284;48.278;16.378;2022-07-29T00:42:27;373.27;;;259.00;;
48481;SDS011;34284;48.278;16.378;2022-07-29T00:44:53;375.55;;;251.93;;
48481;SDS011;34284;48.278;16.378;2022-07-29T00:47:19;370.75;;;255.90;;
48481;SDS011;34284;48.278;16.378;2022-07-29T00:49:45;365.88;;;247.70;;
48481;SDS011;34284;48.278;16.378;2022-07-29T00:52:12;369.83;;;254.07;;
48481;SDS011;34284;48.278;16.378;2022-07-29T00:54:39;365.08;;;251.68;;
48481;SDS011;34284;48.278;16.378;2022-07-29T00:57:05;366.63;;;255.98;;
48481;SDS011;34284;48.278;16.378;2022-07-29T00:59:32;373.10;;;249.95;;
48481;SDS011;34284;48.278;16.378;2022-07-29T01:01:58;370.48;;;254.00;;
48481;SDS011;34284;48.278;16.378;2022-07-29T01:04:23;372.38;;;255.07;;
48481;SDS011;34284;48.278;16.378;2022-07-29T01:06:49;389.08;;;260.67;;
48481;SDS011;34284;48.278;16.378;2022-07-29T01:09:16;369.00;;;249.20;;
48481;SDS011;34284;48.278;16.378;2022-07-29T01:11:43;378.80;;;251.60;;
48481;SDS011;34284;48.278;16.378;2022-07-29T01:14:10;366.70;;;247.00;;
48481;SDS011;34284;48.278;16.378;2022-07-29T01:16:39;367.98;;;247.48;;
48481;SDS011;34284;48.278;16.378;2022-07-29T01:19:13;364.42;;;245.93;;
48481;SDS011;34284;48.278;16.378;2022-07-29T01:21:53;373.50;;;245.20;;
48481;SDS011;34284;48.278;16.378;2022-07-29T01:26:59;380.60;;;249.63;;
48481;SDS011;34284;48.278;16.378;2022-07-29T01:29:32;369.50;;;249.88;;
48481;SDS011;34284;48.278;16.378;2022-07-29T01:32:07;376.70;;;253.10;;
48481;SDS011;34284;48.278;16.378;2022-07-29T01:37:18;369.98;;;254.88;;
48481;SDS011;34284;48.278;16.378;2022-07-29T01:39:45;367.38;;;245.23;;
48481;SDS011;34284;48.278;16.378;2022-07-29T01:42:14;365.40;;;247.80;;
48481;SDS011;34284;48.278;16.378;2022-07-29T01:44:45;371.58;;;247.43;;
48481;SDS011;34284;48.278;16.378;2022-07-29T01:47:12;361.88;;;236.98;;
48481;SDS011;34284;48.278;16.378;2022-07-29T01:49:40;366.15;;;248.50;;
48481;SDS011;34284;48.278;16.378;2022-07-29T01:52:13;373.05;;;248.82;;
48481;SDS011;34284;48.278;16.378;2022-07-29T01:54:42;363.05;;;241.40;;
48481;SDS011;34284;48.278;16.378;2022-07-29T01:57:09;367.05;;;249.18;;
48481;SDS011;34284;48.278;16.378;2022-07-29T01:59:36;366.60;;;251.20;;
48481;SDS011;34284;48.278;16.378;2022-07-29T02:02:03;377.70;;;246.13;;
48481;SDS011;34284;48.278;16.378;2022-07-29T02:04:30;369.42;;;245.82;;
48481;SDS011;34284;48.278;16.378;2022-07-29T02:06:58;370.75;;;241.82;;
48481;SDS011;34284;48.278;16.378;2022-07-29T02:09:26;369.17;;;248.20;;
48481;SDS011;34284;48.278;16.378;2022-07-29T02:11:53;370.13;;;247.93;;
48481;SDS011;34284;48.278;16.378;2022-07-29T02:14:20;368.10;;;243.73;;
48481;SDS011;34284;48.278;16.378;2022-07-29T02:16:47;363.15;;;237.73;;
48481;SDS011;34284;48.278;16.378;2022-07-29T02:19:14;363.65;;;241.25;;
48481;SDS011;34284;48.278;16.378;2022-07-29T02:21:42;362.48;;;238.13;;
48481;SDS011;34284;48.278;16.378;2022-07-29T02:24:09;364.73;;;244.07;;
48481;SDS011;34284;48.278;16.378;2022-07-29T02:26:37;364.88;;;243.52;;
48481;SDS011;34284;48.278;16.378;2022-07-29T02:29:03;365.80;;;237.57;;
48481;SDS011;34284;48.278;16.378;2022-07-29T02:31:33;366.27;;;236.63;;
48481;SDS011;34284;48.278;16.378;2022-07-29T02:34:01;360.80;;;229.02;;
48481;SDS011;34284;48.278;16.378;2022-07-29T02:36:27;367.95;;;237.05;;
48481;SDS011;34284;48.278;16.378;2022-07-29T02:38:55;362.55;;;230.00;;
48481;SDS011;34284;48.278;16.378;2022-07-29T02:41:30;363.63;;;238.65;;
48481;SDS011;34284;48.278;16.378;2022-07-29T02:43:58;367.92;;;230.20;;
48481;SDS011;34284;48.278;16.378;2022-07-29T02:46:28;365.67;;;234.27;;
48481;SDS011;34284;48.278;16.378;2022-07-29T02:48:59;362.65;;;228.73;;
48481;SDS011;34284;48.278;16.378;2022-07-29T02:51:28;364.48;;;231.35;;
48481;SDS011;34284;48.278;16.378;2022-07-29T02:53:58;364.38;;;233.18;;
48481;SDS011;34284;48.278;16.378;2022-07-29T02:56:25;360.75;;;229.75;;
48481;SDS011;34284;48.278;16.378;2022-07-29T02:58:57;366.17;;;237.48;;
48481;SDS011;34284;48.278;16.378;2022-07-29T03:01:24;362.90;;;232.50;;
48481;SDS011;34284;48.278;16.378;2022-07-29T03:03:53;372.83;;;234.20;;
48481;SDS011;34284;48.278;16.378;2022-07-29T03:06:23;365.50;;;229.70;;
48481;SDS011;34284;48.278;16.378;2022-07-29T03:08:50;369.67;;;239.03;;
48481;SDS011;34284;48.278;16.378;2022-07-29T03:11:16;357.30;;;231.57;;
48481;SDS011;34284;48.278;16.378;2022-07-29T03:13:42;360.10;;;231.93;;
48481;SDS011;34284;48.278;16.378;2022-07-29T03:16:08;368.70;;;237.82;;
48481;SDS011;34284;48.278;16.378;2022-07-29T03:18:35;367.47;;;237.87;;
48481;SDS011;34284;48.278;16.378;2022-07-29T03:21:02;368.17;;;233.33;;
48481;SDS011;34284;48.278;16.378;2022-07-29T03:23:28;365.95;;;231.55;;
48481;SDS011;34284;48.278;16.378;2022-07-29T03:25:54;369.43;;;237.57;;
48481;SDS011;34284;48.278;16.378;2022-07-29T03:28:21;364.90;;;232.67;;
48481;SDS011;34284;48.278;16.378;2022-07-29T03:30:47;362.00;;;236.23;;
48481;SDS011;34284;48.278;16.378;2022-07-29T03:33:13;360.52;;;233.23;;
48481;SDS011;34284;48.278;16.378;2022-07-29T03:35:39;366.77;;;234.50;;
48481;SDS011;34284;48.278;16.378;2022-07-29T03:38:05;373.33;;;234.88;;
48481;SDS011;34284;48.278;16.378;2022-07-29T03:40:38;361.83;;;227.00;;
48481;SDS011;34284;48.278;16.378;2022-07-29T03:43:06;369.27;;;237.25;;
48481;SDS011;34284;48.278;16.378;2022-07-29T03:45:33;368.40;;;230.82;;
48481;SDS011;34284;48.278;16.378;2022-07-29T03:48:01;371.73;;;239.50;;
48481;SDS011;34284;48.278;16.378;2022-07-29T03:50:28;371.20;;;243.88;;
48481;SDS011;34284;48.278;16.378;2022-07-29T03:52:55;370.63;;;236.60;;
48481;SDS011;34284;48.278;16.378;2022-07-29T03:55:22;371.13;;;242.35;;
48481;SDS011;34284;48.278;16.378;2022-07-29T03:57:48;373.43;;;240.33;;
48481;SDS011;34284;48.278;16.378;2022-07-29T04:00:15;371.10;;;231.40;;
48481;SDS011;34284;48.278;16.378;2022-07-29T04:02:42;381.00;;;244.20;;
48481;SDS011;34284;48.278;16.378;2022-07-29T04:05:13;370.03;;;238.67;;
48481;SDS011;34284;48.278;16.378;2022-07-29T04:07:43;374.13;;;237.67;;
48481;SDS011;34284;48.278;16.378;2022-07-29T04:10:09;381.93;;;234.70;;
48481;SDS011;34284;48.278;16.378;2022-07-29T04:12:35;371.13;;;234.77;;
48481;SDS011;34284;48.278;16.378;2022-07-29T04:15:04;365.60;;;226.13;;
48481;SDS011;34284;48.278;16.378;2022-07-29T04:17:30;362.25;;;230.07;;
48481;SDS011;34284;48.278;16.378;2022-07-29T04:19:56;377.97;;;244.70;;
48481;SDS011;34284;48.278;16.378;2022-07-29T04:22:22;377.35;;;230.95;;
48481;SDS011;34284;48.278;16.378;2022-07-29T04:24:50;377.05;;;229.70;;
48481;SDS011;34284;48.278;16.378;2022-07-29T04:27:16;364.73;;;228.02;;
48481;SDS011;34284;48.278;16.378;2022-07-29T04:29:42;363.73;;;226.57;;
48481;SDS011;34284;48.278;16.378;2022-07-29T04:32:08;374.90;;;233.73;;
48481;SDS011;34284;48.278;16.378;2022-07-29T04:34:33;379.23;;;243.33;;
48481;SDS011;34284;48.278;16.378;2022-07-29T04:36:59;358.50;;;225.60;;
48481;SDS011;34284;48.278;16.378;2022-07-29T04:39:26;366.93;;;239.40;;
48481;SDS011;34284;48.278;16.378;2022-07-29T04:41:52;363.35;;;227.68;;
48481;SDS011;34284;48.278;16.378;2022-07-29T04:44:18;376.80;;;246.53;;
48481;SDS011;34284;48.278;16.378;2022-07-29T04:46:44;364.67;;;240.80;;
48481;SDS011;34284;48.278;16.378;2022-07-29T04:49:10;364.75;;;232.20;;
48481;SDS011;34284;48.278;16.378;2022-07-29T04:51:36;367.73;;;241.35;;
48481;SDS011;34284;48.278;16.378;2022-07-29T04:54:02;384.93;;;262.87;;
48481;SDS011;34284;48.278;16.378;2022-07-29T04:56:28;377.63;;;244.68;;
48481;SDS011;34284;48.278;16.378;2022-07-29T04:58:54;368.27;;;237.77;;
48481;SDS011;34284;48.278;16.378;2022-07-29T05:01:20;380.60;;;243.38;;
48481;SDS011;34284;48.278;16.378;2022-07-29T05:03:46;373.65;;;252.32;;
48481;SDS011;34284;48.278;16.378;2022-07-29T05:06:12;368.02;;;240.13;;
48481;SDS011;34284;48.278;16.378;2022-07-29T05:08:38;375.33;;;257.17;;
48481;SDS011;34284;48.278;16.378;2022-07-29T05:11:04;377.13;;;251.15;;
48481;SDS011;34284;48.278;16.378;2022-07-29T05:13:31;380.30;;;253.85;;
48481;SDS011;34284;48.278;16.378;2022-07-29T05:15:57;373.77;;;251.43;;
48481;SDS011;34284;48.278;16.378;2022-07-29T05:18:23;388.42;;;268.38;;
48481;SDS011;34284;48.278;16.378;2022-07-29T05:20:49;400.77;;;278.90;;
48481;SDS011;34284;48.278;16.378;2022-07-29T05:23:16;378.95;;;274.25;;
48481;SDS011;34284;48.278;16.378;2022-07-29T05:25:42;415.80;;;335.38;;
48481;SDS011;34284;48.278;16.378;2022-07-29T05:28:08;394.77;;;280.88;;
48481;SDS011;34284;48.278;16.378;2022-07-29T05:30:34;403.88;;;307.52;;
48481;SDS011;34284;48.278;16.378;2022-07-29T05:33:00;388.80;;;275.92;;
48481;SDS011;34284;48.278;16.378;2022-07-29T05:35:26;390.92;;;275.10;;
48481;SDS011;34284;48.278;16.378;2022-07-29T05:37:52;382.80;;;281.55;;
48481;SDS011;34284;48.278;16.378;2022-07-29T05:40:18;398.25;;;294.50;;
48481;SDS011;34284;48.278;16.378;2022-07-29T05:42:45;393.85;;;298.95;;
48481;SDS011;34284;48.278;16.378;2022-07-29T05:45:11;389.73;;;288.27;;
48481;SDS011;34284;48.278;16.378;2022-07-29T05:47:37;401.77;;;293.80;;
48481;SDS011;34284;48.278;16.378;2022-07-29T05:50:03;400.70;;;315.60;;
48481;SDS011;34284;48.278;16.378;2022-07-29T05:52:29;413.98;;;299.60;;
48481;SDS011;34284;48.278;16.378;2022-07-29T05:54:55;404.92;;;309.45;;
48481;SDS011;34284;48.278;16.378;2022-07-29T05:57:22;397.35;;;301.70;;
48481;SDS011;34284;48.278;16.378;2022-07-29T05:59:49;403.20;;;307.10;;
48481;SDS011;34284;48.278;16.378;2022-07-29T06:02:15;396.98;;;301.58;;
48481;SDS011;34284;48.278;16.378;2022-07-29T06:04:41;391.20;;;302.23;;
48481;SDS011;34284;48.278;16.378;2022-07-29T06:07:07;406.45;;;324.40;;
48481;SDS011;34284;48.278;16.378;2022-07-29T06:09:33;417.58;;;323.13;;
48481;SDS011;34284;48.278;16.378;2022-07-29T06:12:00;432.48;;;357.20;;
48481;SDS011;34284;48.278;16.378;2022-07-29T06:14:26;415.10;;;354.55;;
48481;SDS011;34284;48.278;16.378;2022-07-29T06:16:53;417.65;;;348.65;;
48481;SDS011;34284;48.278;16.378;2022-07-29T06:19:19;419.35;;;354.17;;
48481;SDS011;34284;48.278;16.378;2022-07-29T06:21:45;423.98;;;365.60;;
48481;SDS011;34284;48.278;16.378;2022-07-29T06:24:12;419.65;;;370.73;;
48481;SDS011;34284;48.278;16.378;2022-07-29T06:26:38;441.85;;;393.27;;
48481;SDS011;34284;48.278;16.378;2022-07-29T06:29:04;425.98;;;374.65;;
48481;SDS011;34284;48.278;16.378;2022-07-29T06:31:30;424.50;;;362.23;;
48481;SDS011;34284;48.278;16.378;2022-07-29T06:33:56;426.30;;;365.83;;
48481;SDS011;34284;48.278;16.378;2022-07-29T06:36:22;432.70;;;384.85;;
48481;SDS011;34284;48.278;16.378;2022-07-29T06:38:48;416.00;;;357.15;;
48481;SDS011;34284;48.278;16.378;2022-07-29T06:41:14;412.15;;;345.77;;
48481;SDS011;34284;48.278;16.378;2022-07-29T06:43:41;433.20;;;348.42;;
48481;SDS011;34284;48.278;16.378;2022-07-29T06:46:09;416.27;;;352.90;;
48481;SDS011;34284;48.278;16.378;2022-07-29T06:48:36;411.05;;;351.15;;
48481;SDS011;34284;48.278;16.378;2022-07-29T06:51:03;409.90;;;344.13;;
48481;SDS011;34284;48.278;16.378;2022-07-29T06:53:29;407.45;;;342.98;;
48481;SDS011;34284;48.278;16.378;2022-07-29T06:55:56;414.85;;;345.65;;
48481;SDS011;34284;48.278;16.378;2022-07-29T06:58:23;406.45;;;337.83;;
48481;SDS011;34284;48.278;16.378;2022-07-29T07:00:49;401.00;;;339.10;;
48481;SDS011;34284;48.278;16.378;2022-07-29T07:03:15;398.35;;;335.13;;
48481;SDS011;34284;48.278;16.378;2022-07-29T07:05:41;412.33;;;341.95;;
48481;SDS011;34284;48.278;16.378;2022-07-29T07:08:07;402.30;;;330.27;;
48481;SDS011;34284;48.278;16.378;2022-07-29T07:10:34;406.02;;;332.25;;
48481;SDS011;34284;48.278;16.378;2022-07-29T07:13:00;401.73;;;326.77;;
48481;SDS011;34284;48.278;16.378;2022-07-29T07:15:27;400.45;;;329.88;;
48481;SDS011;34284;48.278;16.378;2022-07-29T07:17:53;409.13;;;324.58;;
48481;SDS011;34284;48.278;16.378;2022-07-29T07:20:19;407.70;;;322.70;;
48481;SDS011;34284;48.278;16.378;2022-07-29T07:22:45;395.67;;;317.52;;
48481;SDS011;34284;48.278;16.378;2022-07-29T07:25:11;400.85;;;323.35;;
48481;SDS011;34284;48.278;16.378;2022-07-29T07:27:37;394.50;;;318.63;;
48481;SDS011;34284;48.278;16.378;2022-07-29T07:30:04;401.77;;;312.20;;
48481;SDS011;34284;48.278;16.378;2022-07-29T07:32:33;399.90;;;320.08;;
48481;SDS011;34284;48.278;16.378;2022-07-29T07:34:59;396.50;;;324.40;;
48481;SDS011;34284;48.278;16.378;2022-07-29T07:37:25;393.92;;;319.83;;
48481;SDS011;34284;48.278;16.378;2022-07-29T07:39:51;393.52;;;317.75;;
48481;SDS011;34284;48.278;16.378;2022-07-29T07:42:18;409.52;;;321.52;;
48481;SDS011;34284;48.278;16.378;2022-07-29T07:44:44;399.52;;;319.52;;
48481;SDS011;34284;48.278;16.378;2022-07-29T07:47:13;402.92;;;317.65;;
48481;SDS011;34284;48.278;16.378;2022-07-29T07:49:39;394.05;;;313.85;;
48481;SDS011;34284;48.278;16.378;2022-07-29T07:52:05;409.42;;;319.63;;
48481;SDS011;34284;48.278;16.378;2022-07-29T07:54:31;412.25;;;325.80;;
48481;SDS011;34284;48.278;16.378;2022-07-29T07:56:57;401.73;;;325.77;;
48481;SDS011;34284;48.278;16.378;2022-07-29T07:59:23;398.42;;;332.10;;
48481;SDS011;34284;48.278;16.378;2022-07-29T08:01:50;409.65;;;346.88;;
48481;SDS011;34284;48.278;16.378;2022-07-29T08:04:16;408.80;;;346.83;;
48481;SDS011;34284;48.278;16.378;2022-07-29T08:06:42;426.83;;;357.15;;
48481;SDS011;34284;48.278;16.378;2022-07-29T08:09:08;423.73;;;356.23;;
48481;SDS011;34284;48.278;16.378;2022-07-29T08:11:34;417.05;;;357.83;;
48481;SDS011;34284;48.278;16.378;2022-07-29T08:14:00;414.23;;;358.70;;
48481;SDS011;34284;48.278;16.378;2022-07-29T08:16:26;417.40;;;366.10;;
48481;SDS011;34284;48.278;16.378;2022-07-29T08:18:53;419.55;;;370.75;;
48481;SDS011;34284;48.278;16.378;2022-07-29T08:21:22;423.10;;;376.52;;
48481;SDS011;34284;48.278;16.378;2022-07-29T08:23:48;417.15;;;366.58;;
48481;SDS011;34284;48.278;16.378;2022-07-29T08:26:17;438.25;;;390.48;;
48481;SDS011;34284;48.278;16.378;2022-07-29T08:28:43;460.95;;;412.35;;
48481;SDS011;34284;48.278;16.378;2022-07-29T08:31:11;455.38;;;407.02;;
48481;SDS011;34284;48.278;16.378;2022-07-29T08:33:37;463.20;;;413.55;;
48481;SDS011;34284;48.278;16.378;2022-07-29T08:36:04;490.63;;;440.70;;
48481;SDS011;34284;48.278;16.378;2022-07-29T08:38:30;491.90;;;442.15;;
48481;SDS011;34284;48.278;16.378;2022-07-29T08:40:56;515.00;;;464.90;;
48481;SDS011;34284;48.278;16.378;2022-07-29T08:43:22;531.75;;;480.80;;
48481;SDS011;34284;48.278;16.378;2022-07-29T08:45:49;537.70;;;487.23;;
48481;SDS011;34284;48.278;16.378;2022-07-29T08:48:19;541.10;;;490.75;;
48481;SDS011;34284;48.278;16.378;2022-07-29T08:50:46;552.15;;;500.67;;
48481;SDS011;34284;48.278;16.378;2022-07-29T08:53:15;568.08;;;516.15;;
48481;SDS011;34284;48.278;16.378;2022-07-29T08:55:45;573.22;;;521.22;;
48481;SDS011;34284;48.278;16.378;2022-07-29T08:58:12;577.97;;;526.55;;
48481;SDS011;34284;48.278;16.378;2022-07-29T09:00:40;580.63;;;528.15;;
48481;SDS011;34284;48.278;16.378;2022-07-29T09:03:06;591.33;;;538.13;;
48481;SDS011;34284;48.278;16.378;2022-07-29T09:05:34;610.55;;;557.45;;
48481;SDS011;34284;48.278;16.378;2022-07-29T09:08:00;612.78;;;559.80;;
48481;SDS011;34284;48.278;16.378;2022-07-29T09:10:27;617.85;;;564.65;;
48481;SDS011;34284;48.278;16.378;2022-07-29T09:12:56;618.70;;;565.38;;
48481;SDS011;34284;48.278;16.378;2022-07-29T09:15:22;608.20;;;555.30;;
48481;SDS011;34284;48.278;16.378;2022-07-29T09:17:48;584.35;;;533.45;;
48481;SDS011;34284;48.278;16.378;2022-07-29T09:20:16;597.72;;;545.92;;
48481;SDS011;34284;48.278;16.378;2022-07-29T09:22:42;601.67;;;549.50;;
48481;SDS011;34284;48.278;16.378;2022-07-29T09:25:10;579.53;;;528.33;;
48481;SDS011;34284;48.278;16.378;2022-07-29T09:27:37;562.25;;;511.98;;
48481;SDS011;34284;48.278;16.378;2022-07-29T09:30:06;556.80;;;505.58;;
48481;SDS011;34284;48.278;16.378;2022-07-29T09:35:13;535.53;;;485.80;;
48481;SDS011;34284;48.278;16.378;2022-07-29T09:37:39;545.72;;;494.85;;
48481;SDS011;34284;48.278;16.378;2022-07-29T09:42:40;565.90;;;515.72;;
48481;SDS011;34284;48.278;16.378;2022-07-29T09:45:07;589.53;;;537.97;;
48481;SDS011;34284;48.278;16.378;2022-07-29T09:47:40;587.95;;;536.83;;
48481;SDS011;34284;48.278;16.378;2022-07-29T09:50:07;599.47;;;547.13;;
48481;SDS011;34284;48.278;16.378;2022-07-29T09:52:41;618.85;;;565.88;;
48481;SDS011;34284;48.278;16.378;2022-07-29T09:55:10;628.97;;;576.00;;
48481;SDS011;34284;48.278;16.378;2022-07-29T09:57:36;637.28;;;584.20;;
48481;SDS011;34284;48.278;16.378;2022-07-29T10:00:06;646.20;;;592.80;;
48481;SDS011;34284;48.278;16.378;2022-07-29T10:02:34;615.13;;;562.92;;
48481;SDS011;34284;48.278;16.378;2022-07-29T10:05:01;614.67;;;562.83;;
48481;SDS011;34284;48.278;16.378;2022-07-29T10:07:42;614.53;;;562.83;;
48481;SDS011;34284;48.278;16.378;2022-07-29T10:10:08;601.27;;;549.97;;
48481;SDS011;34284;48.278;16.378;2022-07-29T10:12:34;623.50;;;571.35;;
48481;SDS011;34284;48.278;16.378;2022-07-29T10:15:13;624.17;;;571.95;;
48481;SDS011;34284;48.278;16.378;2022-07-29T10:17:41;646.13;;;593.33;;
48481;SDS011;34284;48.278;16.378;2022-07-29T10:20:07;638.95;;;585.25;;
48481;SDS011;34284;48.278;16.378;2022-07-29T10:22:34;636.45;;;582.95;;
48481;SDS011;34284;48.278;16.378;2022-07-29T10:25:00;635.25;;;583.13;;
48481;SDS011;34284;48.278;16.378;2022-07-29T10:27:26;612.72;;;560.83;;
48481;SDS011;34284;48.278;16.378;2022-07-29T10:29:53;620.10;;;567.67;;
48481;SDS011;34284;48.278;16.378;2022-07-29T10:37:22;614.92;;;563.33;;
48481;SDS011;34284;48.278;16.378;2022-07-29T10:42:19;619.97;;;567.67;;
48481;SDS011;34284;48.278;16.378;2022-07-29T10:44:48;624.58;;;572.25;;
48481;SDS011;34284;48.278;16.378;2022-07-29T10:47:23;628.28;;;570.58;;
48481;SDS011;34284;48.278;16.378;2022-07-29T10:49:56;647.00;;;594.08;;
48481;SDS011;34284;48.278;16.378;2022-07-29T10:52:23;648.90;;;595.05;;
48481;SDS011;34284;48.278;16.378;2022-07-29T10:54:52;649.50;;;596.67;;
48481;SDS011;34284;48.278;16.378;2022-07-29T11:00:35;644.78;;;591.65;;
48481;SDS011;34284;48.278;16.378;2022-07-29T11:05:03;627.42;;;574.85;;
48481;SDS011;34284;48.278;16.378;2022-07-29T11:07:30;638.55;;;585.90;;
48481;SDS011;34284;48.278;16.378;2022-07-29T11:15:04;658.00;;;604.63;;
48481;SDS011;34284;48.278;16.378;2022-07-29T11:20:31;624.70;;;572.60;;
48481;SDS011;34284;48.278;16.378;2022-07-29T11:22:57;612.63;;;561.42;;
48481;SDS011;34284;48.278;16.378;2022-07-29T11:25:24;613.50;;;561.65;;
48481;SDS011;34284;48.278;16.378;2022-07-29T11:27:51;600.65;;;549.75;;
48481;SDS011;34284;48.278;16.378;2022-07-29T11:30:17;605.75;;;555.13;;
48481;SDS011;34284;48.278;16.378;2022-07-29T11:32:43;601.55;;;550.03;;
48481;SDS011;34284;48.278;16.378;2022-07-29T11:35:11;605.28;;;552.22;;
48481;SDS011;34284;48.278;16.378;2022-07-29T11:37:37;588.60;;;537.90;;
48481;SDS011;34284;48.278;16.378;2022-07-29T11:47:30;593.95;;;542.58;;
48481;SDS011;34284;48.278;16.378;2022-07-29T11:49:57;579.63;;;528.75;;
48481;SDS011;34284;48.278;16.378;2022-07-29T11:52:23;583.97;;;533.72;;
48481;SDS011;34284;48.278;16.378;2022-07-29T11:54:50;598.05;;;544.88;;
48481;SDS011;34284;48.278;16.378;2022-07-29T11:57:16;598.15;;;545.78;;
48481;SDS011;34284;48.278;16.378;2022-07-29T11:59:43;586.95;;;536.17;;
48481;SDS011;34284;48.278;16.378;2022-07-29T12:02:10;601.08;;;549.92;;
48481;SDS011;34284;48.278;16.378;2022-07-29T12:04:52;591.30;;;539.92;;
48481;SDS011;34284;48.278;16.378;2022-07-29T12:07:25;597.75;;;546.58;;
48481;SDS011;34284;48.278;16.378;2022-07-29T12:09:52;582.67;;;532.83;;
48481;SDS011;34284;48.278;16.378;2022-07-29T12:12:18;580.47;;;529.90;;
48481;SDS011;34284;48.278;16.378;2022-07-29T12:14:44;578.70;;;528.53;;
48481;SDS011;34284;48.278;16.378;2022-07-29T12:17:30;584.53;;;534.05;;
48481;SDS011;34284;48.278;16.378;2022-07-29T12:19:57;555.38;;;506.35;;
48481;SDS011;34284;48.278;16.378;2022-07-29T12:24:52;568.78;;;518.55;;
48481;SDS011;34284;48.278;16.378;2022-07-29T12:27:18;555.40;;;505.67;;
48481;SDS011;34284;48.278;16.378;2022-07-29T12:29:45;572.03;;;521.80;;
48481;SDS011;34284;48.278;16.378;2022-07-29T12:32:11;563.17;;;513.17;;
48481;SDS011;34284;48.278;16.378;2022-07-29T12:34:37;558.47;;;508.95;;
48481;SDS011;34284;48.278;16.378;2022-07-29T12:37:03;567.00;;;515.97;;
48481;SDS011;34284;48.278;16.378;2022-07-29T12:39:29;560.55;;;511.15;;
48481;SDS011;34284;48.278;16.378;2022-07-29T12:41:56;564.15;;;514.33;;
48481;SDS011;34284;48.278;16.378;2022-07-29T12:44:22;553.22;;;502.48;;
48481;SDS011;34284;48.278;16.378;2022-07-29T12:47:02;549.13;;;499.73;;
48481;SDS011;34284;48.278;16.378;2022-07-29T12:49:28;560.58;;;511.33;;
48481;SDS011;34284;48.278;16.378;2022-07-29T12:51:54;568.60;;;518.55;;
48481;SDS011;34284;48.278;16.378;2022-07-29T12:54:20;570.45;;;520.70;;
48481;SDS011;34284;48.278;16.378;2022-07-29T12:56:46;569.97;;;519.35;;
48481;SDS011;34284;48.278;16.378;2022-07-29T12:59:23;567.53;;;517.20;;
48481;SDS011;34284;48.278;16.378;2022-07-29T13:01:50;580.45;;;529.28;;
48481;SDS011;34284;48.278;16.378;2022-07-29T13:04:29;546.35;;;496.77;;
48481;SDS011;34284;48.278;16.378;2022-07-29T13:07:02;535.70;;;486.15;;
48481;SDS011;34284;48.278;16.378;2022-07-29T13:09:43;526.95;;;478.52;;
48481;SDS011;34284;48.278;16.378;2022-07-29T13:12:13;535.63;;;485.77;;
48481;SDS011;34284;48.278;16.378;2022-07-29T13:14:40;537.67;;;486.65;;
48481;SDS011;34284;48.278;16.378;2022-07-29T13:17:10;523.63;;;474.55;;
48481;SDS011;34284;48.278;16.378;2022-07-29T13:19:44;514.55;;;465.73;;
48481;SDS011;34284;48.278;16.378;2022-07-29T13:22:11;502.73;;;452.67;;
48481;SDS011;34284;48.278;16.378;2022-07-29T13:27:16;491.42;;;442.50;;
48481;SDS011;34284;48.278;16.378;2022-07-29T13:29:42;477.55;;;429.55;;
48481;SDS011;34284;48.278;16.378;2022-07-29T13:32:08;477.52;;;429.35;;
48481;SDS011;34284;48.278;16.378;2022-07-29T13:34:34;458.17;;;411.65;;
48481;SDS011;34284;48.278;16.378;2022-07-29T13:37:00;464.50;;;417.75;;
48481;SDS011;34284;48.278;16.378;2022-07-29T13:39:26;463.55;;;416.40;;
48481;SDS011;34284;48.278;16.378;2022-07-29T13:41:52;467.10;;;418.17;;
48481;SDS011;34284;48.278;16.378;2022-07-29T13:44:18;470.58;;;423.23;;
48481;SDS011;34284;48.278;16.378;2022-07-29T13:46:44;447.27;;;400.73;;
48481;SDS011;34284;48.278;16.378;2022-07-29T13:49:10;444.33;;;397.90;;
48481;SDS011;34284;48.278;16.378;2022-07-29T13:51:36;440.75;;;394.10;;
48481;SDS011;34284;48.278;16.378;2022-07-29T13:54:03;428.88;;;382.27;;
48481;SDS011;34284;48.278;16.378;2022-07-29T13:56:29;447.13;;;400.23;;
48481;SDS011;34284;48.278;16.378;2022-07-29T13:58:55;444.77;;;397.65;;
48481;SDS011;34284;48.278;16.378;2022-07-29T14:01:22;432.52;;;385.58;;
48481;SDS011;34284;48.278;16.378;2022-07-29T14:03:48;417.00;;;370.05;;
48481;SDS011;34284;48.278;16.378;2022-07-29T14:06:14;422.70;;;376.75;;
48481;SDS011;34284;48.278;16.378;2022-07-29T14:08:40;416.98;;;371.05;;
48481;SDS011;34284;48.278;16.378;2022-07-29T14:11:06;402.90;;;352.38;;
48481;SDS011;34284;48.278;16.378;2022-07-29T14:13:32;418.23;;;360.67;;
48481;SDS011;34284;48.278;16.378;2022-07-29T14:15:58;410.77;;;365.00;;
48481;SDS011;34284;48.278;16.378;2022-07-29T14:18:24;407.23;;;351.17;;
48481;SDS011;34284;48.278;16.378;2022-07-29T14:20:50;418.98;;;362.33;;
48481;SDS011;34284;48.278;16.378;2022-07-29T14:23:16;418.80;;;347.45;;
48481;SDS011;34284;48.278;16.378;2022-07-29T14:25:42;408.48;;;348.73;;
48481;SDS011;34284;48.278;16.378;2022-07-29T14:28:08;407.80;;;344.15;;